sensor_id;sensor_type;location;lat;lon;timestamp;P1;durP1;ratioP1;P2;durP2;ratioP2
48789;SDS011;41718;51.980;5.734;2023-08-01T00:00:46;5.15;;;3.20;;
48789;SDS011;41718;51.980;5.734;2023-08-01T00:05:48;6.53;;;3.08;;
48789;SDS011;41718;51.980;5.734;2023-08-01T00:10:50;4.25;;;3.03;;
48789;SDS011;41718;51.980;5.734;2023-08-01T00:15:52;4.15;;;2.00;;
48789;SDS011;41718;51.980;5.734;2023-08-01T00:21:08;3.42;;;2.85;;
48789;SDS011;41718;51.980;5.734;2023-08-01T00:26:12;4.85;;;2.42;;
48789;SDS011;41718;51.980;5.734;2023-08-01T00:31:14;7.45;;;3.03;;
48789;SDS011;41718;51.980;5.734;2023-08-01T00:36:16;7.18;;;3.92;;
48789;SDS011;41718;51.980;5.734;2023-08-01T00:41:17;5.07;;;2.80;;
48789;SDS011;41718;51.980;5.734;2023-08-01T00:46:19;4.13;;;2.67;;
48789;SDS011;41718;51.980;5.734;2023-08-01T00:51:20;8.48;;;3.10;;
48789;SDS011;41718;51.980;5.734;2023-08-01T00:56:22;5.53;;;3.22;;
48789;SDS011;41718;51.980;5.734;2023-08-01T01:01:24;8.95;;;3.28;;
48789;SDS011;41718;51.980;5.734;2023-08-01T01:06:32;5.20;;;3.42;;
48789;SDS011;41718;51.980;5.734;2023-08-01T01:11:42;7.57;;;3.78;;
48789;SDS011;41718;51.980;5.734;2023-08-01T01:16:43;8.43;;;3.97;;
48789;SDS011;41718;51.980;5.734;2023-08-01T01:21:45;7.15;;;5.53;;
48789;SDS011;41718;51.980;5.734;2023-08-01T01:26:49;7.35;;;5.00;;
48789;SDS011;41718;51.980;5.734;2023-08-01T01:31:50;6.70;;;5.32;;
48789;SDS011;41718;51.980;5.734;2023-08-01T01:36:53;8.30;;;5.78;;
48789;SDS011;41718;51.980;5.734;2023-08-01T01:41:55;10.20;;;6.63;;
48789;SDS011;41718;51.980;5.734;2023-08-01T01:46:56;5.70;;;3.83;;
48789;SDS011;41718;51.980;5.734;2023-08-01T01:51:58;6.93;;;4.93;;
48789;SDS011;41718;51.980;5.734;2023-08-01T01:57:00;12.82;;;4.65;;
48789;SDS011;41718;51.980;5.734;2023-08-01T02:02:02;9.77;;;4.15;;
48789;SDS011;41718;51.980;5.734;2023-08-01T02:07:05;7.28;;;4.05;;
48789;SDS011;41718;51.980;5.734;2023-08-01T02:12:07;10.68;;;3.15;;
48789;SDS011;41718;51.980;5.734;2023-08-01T02:17:10;8.93;;;3.67;;
48789;SDS011;41718;51.980;5.734;2023-08-01T02:22:12;9.60;;;3.80;;
48789;SDS011;41718;51.980;5.734;2023-08-01T02:27:13;7.53;;;3.70;;
48789;SDS011;41718;51.980;5.734;2023-08-01T02:32:15;8.05;;;3.75;;
48789;SDS011;41718;51.980;5.734;2023-08-01T02:37:16;14.73;;;4.95;;
48789;SDS011;41718;51.980;5.734;2023-08-01T02:42:18;14.93;;;4.43;;
48789;SDS011;41718;51.980;5.734;2023-08-01T02:47:19;7.82;;;3.53;;
48789;SDS011;41718;51.980;5.734;2023-08-01T02:52:21;12.40;;;4.80;;
48789;SDS011;41718;51.980;5.734;2023-08-01T02:57:23;7.53;;;3.58;;
48789;SDS011;41718;51.980;5.734;2023-08-01T03:02:25;11.55;;;4.28;;
48789;SDS011;41718;51.980;5.734;2023-08-01T03:07:29;14.00;;;4.13;;
48789;SDS011;41718;51.980;5.734;2023-08-01T03:12:30;6.45;;;4.03;;
48789;SDS011;41718;51.980;5.734;2023-08-01T03:17:32;13.23;;;3.75;;
48789;SDS011;41718;51.980;5.734;2023-08-01T03:22:34;7.50;;;3.83;;
48789;SDS011;41718;51.980;5.734;2023-08-01T03:27:35;11.73;;;4.32;;
48789;SDS011;41718;51.980;5.734;2023-08-01T03:32:37;13.30;;;5.72;;
48789;SDS011;41718;51.980;5.734;2023-08-01T03:37:39;11.02;;;5.63;;
48789;SDS011;41718;51.980;5.734;2023-08-01T03:42:41;9.27;;;5.30;;
48789;SDS011;41718;51.980;5.734;2023-08-01T03:47:42;13.15;;;5.43;;
48789;SDS011;41718;51.980;5.734;2023-08-01T03:52:44;13.10;;;6.47;;
48789;SDS011;41718;51.980;5.734;2023-08-01T03:57:46;11.63;;;5.15;;
48789;SDS011;41718;51.980;5.734;2023-08-01T04:02:48;9.00;;;5.35;;
48789;SDS011;41718;51.980;5.734;2023-08-01T04:07:49;11.85;;;5.13;;
48789;SDS011;41718;51.980;5.734;2023-08-01T04:12:51;11.20;;;5.05;;
48789;SDS011;41718;51.980;5.734;2023-08-01T04:17:52;14.07;;;5.68;;
48789;SDS011;41718;51.980;5.734;2023-08-01T04:22:54;11.55;;;5.03;;
48789;SDS011;41718;51.980;5.734;2023-08-01T04:27:55;11.00;;;5.35;;
48789;SDS011;41718;51.980;5.734;2023-08-01T04:32:57;16.75;;;5.60;;
48789;SDS011;41718;51.980;5.734;2023-08-01T04:37:59;10.10;;;6.18;;
48789;SDS011;41718;51.980;5.734;2023-08-01T04:43:01;14.10;;;6.22;;
48789;SDS011;41718;51.980;5.734;2023-08-01T04:48:03;9.18;;;4.70;;
48789;SDS011;41718;51.980;5.734;2023-08-01T04:53:05;14.43;;;5.63;;
48789;SDS011;41718;51.980;5.734;2023-08-01T04:58:07;12.18;;;6.32;;
48789;SDS011;41718;51.980;5.734;2023-08-01T05:03:11;11.05;;;5.88;;
48789;SDS011;41718;51.980;5.734;2023-08-01T05:08:13;11.75;;;5.88;;
48789;SDS011;41718;51.980;5.734;2023-08-01T05:13:15;11.43;;;5.50;;
48789;SDS011;41718;51.980;5.734;2023-08-01T05:18:16;11.02;;;5.18;;
48789;SDS011;41718;51.980;5.734;2023-08-01T05:23:18;14.75;;;5.35;;
48789;SDS011;41718;51.980;5.734;2023-08-01T05:28:20;14.60;;;6.22;;
48789;SDS011;41718;51.980;5.734;2023-08-01T05:33:21;11.57;;;5.68;;
48789;SDS011;41718;51.980;5.734;2023-08-01T05:38:23;9.57;;;5.70;;
48789;SDS011;41718;51.980;5.734;2023-08-01T05:43:25;12.20;;;6.40;;
48789;SDS011;41718;51.980;5.734;2023-08-01T05:48:26;14.07;;;5.97;;
48789;SDS011;41718;51.980;5.734;2023-08-01T05:53:28;10.70;;;5.82;;
48789;SDS011;41718;51.980;5.734;2023-08-01T05:58:30;13.88;;;6.18;;
48789;SDS011;41718;51.980;5.734;2023-08-01T06:03:32;11.02;;;5.68;;
48789;SDS011;41718;51.980;5.734;2023-08-01T06:08:33;13.40;;;5.43;;
48789;SDS011;41718;51.980;5.734;2023-08-01T06:13:35;13.55;;;5.25;;
48789;SDS011;41718;51.980;5.734;2023-08-01T06:18:37;9.18;;;4.20;;
48789;SDS011;41718;51.980;5.734;2023-08-01T06:23:38;9.23;;;4.47;;
48789;SDS011;41718;51.980;5.734;2023-08-01T06:28:40;9.48;;;4.65;;
48789;SDS011;41718;51.980;5.734;2023-08-01T06:33:41;14.40;;;4.28;;
48789;SDS011;41718;51.980;5.734;2023-08-01T06:38:43;8.43;;;4.00;;
48789;SDS011;41718;51.980;5.734;2023-08-01T06:43:45;15.60;;;4.35;;
48789;SDS011;41718;51.980;5.734;2023-08-01T06:48:46;7.00;;;3.40;;
48789;SDS011;41718;51.980;5.734;2023-08-01T06:53:49;9.10;;;3.75;;
48789;SDS011;41718;51.980;5.734;2023-08-01T06:58:50;8.57;;;4.47;;
48789;SDS011;41718;51.980;5.734;2023-08-01T07:03:52;10.45;;;4.50;;
48789;SDS011;41718;51.980;5.734;2023-08-01T07:08:53;10.05;;;3.83;;
48789;SDS011;41718;51.980;5.734;2023-08-01T07:13:55;9.75;;;3.85;;
48789;SDS011;41718;51.980;5.734;2023-08-01T07:18:57;14.68;;;5.03;;
48789;SDS011;41718;51.980;5.734;2023-08-01T07:24:01;12.43;;;4.45;;
48789;SDS011;41718;51.980;5.734;2023-08-01T07:29:02;6.20;;;2.80;;
48789;SDS011;41718;51.980;5.734;2023-08-01T07:34:04;8.70;;;3.13;;
48789;SDS011;41718;51.980;5.734;2023-08-01T07:39:05;9.40;;;3.83;;
48789;SDS011;41718;51.980;5.734;2023-08-01T07:44:07;9.02;;;3.05;;
48789;SDS011;41718;51.980;5.734;2023-08-01T07:49:08;6.47;;;3.53;;
48789;SDS011;41718;51.980;5.734;2023-08-01T07:54:10;5.30;;;2.20;;
48789;SDS011;41718;51.980;5.734;2023-08-01T07:59:12;6.80;;;2.78;;
48789;SDS011;41718;51.980;5.734;2023-08-01T08:04:13;8.93;;;3.08;;
48789;SDS011;41718;51.980;5.734;2023-08-01T08:09:15;6.32;;;2.70;;
48789;SDS011;41718;51.980;5.734;2023-08-01T08:14:17;7.38;;;2.53;;
48789;SDS011;41718;51.980;5.734;2023-08-01T08:19:18;15.05;;;2.90;;
48789;SDS011;41718;51.980;5.734;2023-08-01T08:24:20;7.57;;;3.22;;
48789;SDS011;41718;51.980;5.734;2023-08-01T08:29:21;5.97;;;2.63;;
48789;SDS011;41718;51.980;5.734;2023-08-01T08:34:23;6.22;;;3.22;;
48789;SDS011;41718;51.980;5.734;2023-08-01T08:39:24;9.70;;;3.08;;
48789;SDS011;41718;51.980;5.734;2023-08-01T08:44:26;8.73;;;2.28;;
48789;SDS011;41718;51.980;5.734;2023-08-01T08:49:32;7.55;;;3.58;;
48789;SDS011;41718;51.980;5.734;2023-08-01T08:54:33;6.07;;;2.08;;
48789;SDS011;41718;51.980;5.734;2023-08-01T08:59:37;6.97;;;2.30;;
48789;SDS011;41718;51.980;5.734;2023-08-01T09:04:40;6.45;;;2.20;;
48789;SDS011;41718;51.980;5.734;2023-08-01T09:09:41;6.55;;;1.88;;
48789;SDS011;41718;51.980;5.734;2023-08-01T09:14:43;5.90;;;2.33;;
48789;SDS011;41718;51.980;5.734;2023-08-01T09:19:46;4.35;;;1.90;;
48789;SDS011;41718;51.980;5.734;2023-08-01T09:24:54;3.92;;;2.10;;
48789;SDS011;41718;51.980;5.734;2023-08-01T09:30:04;5.78;;;1.15;;
48789;SDS011;41718;51.980;5.734;2023-08-01T09:35:07;3.58;;;1.58;;
48789;SDS011;41718;51.980;5.734;2023-08-01T09:40:09;3.45;;;1.13;;
48789;SDS011;41718;51.980;5.734;2023-08-01T09:45:11;5.03;;;1.92;;
48789;SDS011;41718;51.980;5.734;2023-08-01T09:50:20;4.47;;;1.80;;
48789;SDS011;41718;51.980;5.734;2023-08-01T10:00:29;6.80;;;1.92;;
48789;SDS011;41718;51.980;5.734;2023-08-01T10:05:32;5.88;;;1.17;;
48789;SDS011;41718;51.980;5.734;2023-08-01T10:10:37;4.00;;;1.70;;
48789;SDS011;41718;51.980;5.734;2023-08-01T10:15:38;7.40;;;2.25;;
48789;SDS011;41718;51.980;5.734;2023-08-01T10:20:43;2.15;;;1.25;;
48789;SDS011;41718;51.980;5.734;2023-08-01T10:25:45;3.35;;;1.70;;
48789;SDS011;41718;51.980;5.734;2023-08-01T10:30:52;5.03;;;1.83;;
48789;SDS011;41718;51.980;5.734;2023-08-01T10:35:56;4.35;;;1.20;;
48789;SDS011;41718;51.980;5.734;2023-08-01T10:40:57;4.18;;;1.58;;
48789;SDS011;41718;51.980;5.734;2023-08-01T10:46:03;2.45;;;0.90;;
48789;SDS011;41718;51.980;5.734;2023-08-01T10:51:05;2.78;;;1.65;;
48789;SDS011;41718;51.980;5.734;2023-08-01T10:56:07;5.28;;;1.98;;
48789;SDS011;41718;51.980;5.734;2023-08-01T11:01:09;6.05;;;1.77;;
48789;SDS011;41718;51.980;5.734;2023-08-01T11:06:11;4.35;;;1.50;;
48789;SDS011;41718;51.980;5.734;2023-08-01T11:11:13;3.08;;;1.27;;
48789;SDS011;41718;51.980;5.734;2023-08-01T11:16:16;5.30;;;2.03;;
48789;SDS011;41718;51.980;5.734;2023-08-01T11:21:30;3.00;;;1.50;;
48789;SDS011;41718;51.980;5.734;2023-08-01T11:26:44;4.80;;;1.35;;
48789;SDS011;41718;51.980;5.734;2023-08-01T11:31:53;5.03;;;1.73;;
48789;SDS011;41718;51.980;5.734;2023-08-01T11:44:04;3.67;;;1.50;;
48789;SDS011;41718;51.980;5.734;2023-08-01T11:55:17;4.10;;;1.20;;
48789;SDS011;41718;51.980;5.734;2023-08-01T12:00:39;5.32;;;1.42;;
48789;SDS011;41718;51.980;5.734;2023-08-01T12:06:25;3.60;;;1.10;;
48789;SDS011;41718;51.980;5.734;2023-08-01T12:11:38;3.05;;;1.50;;
48789;SDS011;41718;51.980;5.734;2023-08-01T12:16:44;4.85;;;1.30;;
48789;SDS011;41718;51.980;5.734;2023-08-01T12:21:53;3.65;;;1.50;;
48789;SDS011;41718;51.980;5.734;2023-08-01T12:33:01;8.05;;;2.05;;
48789;SDS011;41718;51.980;5.734;2023-08-01T12:44:07;4.43;;;1.73;;
48789;SDS011;41718;51.980;5.734;2023-08-01T12:49:28;6.07;;;1.63;;
48789;SDS011;41718;51.980;5.734;2023-08-01T12:54:33;4.13;;;2.05;;
48789;SDS011;41718;51.980;5.734;2023-08-01T12:59:40;6.20;;;1.92;;
48789;SDS011;41718;51.980;5.734;2023-08-01T13:04:42;5.07;;;2.00;;
48789;SDS011;41718;51.980;5.734;2023-08-01T13:09:44;4.57;;;1.90;;
48789;SDS011;41718;51.980;5.734;2023-08-01T13:14:51;6.53;;;1.92;;
48789;SDS011;41718;51.980;5.734;2023-08-01T13:20:12;7.40;;;1.92;;
48789;SDS011;41718;51.980;5.734;2023-08-01T13:25:22;3.65;;;1.65;;
48789;SDS011;41718;51.980;5.734;2023-08-01T13:30:44;5.70;;;1.92;;
48789;SDS011;41718;51.980;5.734;2023-08-01T13:36:10;6.65;;;2.55;;
48789;SDS011;41718;51.980;5.734;2023-08-01T13:41:20;3.72;;;1.17;;
48789;SDS011;41718;51.980;5.734;2023-08-01T13:46:23;4.80;;;1.52;;
48789;SDS011;41718;51.980;5.734;2023-08-01T13:51:39;1.70;;;1.02;;
48789;SDS011;41718;51.980;5.734;2023-08-01T14:26:03;4.88;;;1.48;;
48789;SDS011;41718;51.980;5.734;2023-08-01T14:31:08;5.20;;;1.27;;
48789;SDS011;41718;51.980;5.734;2023-08-01T14:36:19;4.25;;;1.40;;
48789;SDS011;41718;51.980;5.734;2023-08-01T14:41:26;3.15;;;1.13;;
48789;SDS011;41718;51.980;5.734;2023-08-01T14:46:55;4.28;;;1.77;;
48789;SDS011;41718;51.980;5.734;2023-08-01T14:52:14;2.47;;;1.33;;
48789;SDS011;41718;51.980;5.734;2023-08-01T14:57:20;3.25;;;2.13;;
48789;SDS011;41718;51.980;5.734;2023-08-01T15:02:21;4.85;;;2.03;;
48789;SDS011;41718;51.980;5.734;2023-08-01T15:07:26;5.30;;;1.75;;
48789;SDS011;41718;51.980;5.734;2023-08-01T15:12:34;6.90;;;1.55;;
48789;SDS011;41718;51.980;5.734;2023-08-01T15:17:42;6.70;;;1.90;;
48789;SDS011;41718;51.980;5.734;2023-08-01T15:23:19;4.32;;;1.58;;
48789;SDS011;41718;51.980;5.734;2023-08-01T15:28:21;2.40;;;1.27;;
48789;SDS011;41718;51.980;5.734;2023-08-01T15:33:24;4.80;;;2.10;;
48789;SDS011;41718;51.980;5.734;2023-08-01T15:38:26;6.03;;;1.80;;
48789;SDS011;41718;51.980;5.734;2023-08-01T15:43:28;5.35;;;1.73;;
48789;SDS011;41718;51.980;5.734;2023-08-01T15:48:31;5.30;;;1.30;;
48789;SDS011;41718;51.980;5.734;2023-08-01T15:53:34;4.50;;;1.42;;
48789;SDS011;41718;51.980;5.734;2023-08-01T15:58:36;6.47;;;1.85;;
48789;SDS011;41718;51.980;5.734;2023-08-01T16:03:39;4.45;;;1.42;;
48789;SDS011;41718;51.980;5.734;2023-08-01T16:08:42;6.60;;;1.70;;
48789;SDS011;41718;51.980;5.734;2023-08-01T16:13:43;4.47;;;1.45;;
48789;SDS011;41718;51.980;5.734;2023-08-01T16:18:45;4.82;;;1.63;;
48789;SDS011;41718;51.980;5.734;2023-08-01T16:23:46;2.33;;;0.98;;
48789;SDS011;41718;51.980;5.734;2023-08-01T16:28:48;3.33;;;1.20;;
48789;SDS011;41718;51.980;5.734;2023-08-01T16:33:49;3.85;;;1.60;;
48789;SDS011;41718;51.980;5.734;2023-08-01T16:38:51;2.38;;;0.77;;
48789;SDS011;41718;51.980;5.734;2023-08-01T16:43:52;2.22;;;1.52;;
48789;SDS011;41718;51.980;5.734;2023-08-01T16:48:56;2.97;;;1.00;;
48789;SDS011;41718;51.980;5.734;2023-08-01T16:54:10;1.45;;;1.05;;
48789;SDS011;41718;51.980;5.734;2023-08-01T16:59:14;6.32;;;1.42;;
48789;SDS011;41718;51.980;5.734;2023-08-01T17:04:15;2.30;;;1.10;;
48789;SDS011;41718;51.980;5.734;2023-08-01T17:09:17;3.15;;;1.20;;
48789;SDS011;41718;51.980;5.734;2023-08-01T17:14:18;2.28;;;1.40;;
48789;SDS011;41718;51.980;5.734;2023-08-01T17:19:20;2.90;;;1.38;;
48789;SDS011;41718;51.980;5.734;2023-08-01T17:24:21;4.03;;;1.40;;
48789;SDS011;41718;51.980;5.734;2023-08-01T17:29:26;4.03;;;1.77;;
48789;SDS011;41718;51.980;5.734;2023-08-01T17:34:27;4.35;;;1.75;;
48789;SDS011;41718;51.980;5.734;2023-08-01T17:39:29;5.05;;;1.88;;
48789;SDS011;41718;51.980;5.734;2023-08-01T17:44:30;5.53;;;1.50;;
48789;SDS011;41718;51.980;5.734;2023-08-01T17:49:40;7.57;;;1.45;;
48789;SDS011;41718;51.980;5.734;2023-08-01T17:54:41;4.10;;;1.17;;
48789;SDS011;41718;51.980;5.734;2023-08-01T17:59:43;4.13;;;1.52;;
48789;SDS011;41718;51.980;5.734;2023-08-01T18:04:45;5.43;;;2.08;;
48789;SDS011;41718;51.980;5.734;2023-08-01T18:09:46;4.72;;;1.80;;
48789;SDS011;41718;51.980;5.734;2023-08-01T18:14:50;5.25;;;2.03;;
48789;SDS011;41718;51.980;5.734;2023-08-01T18:19:58;4.97;;;1.30;;
48789;SDS011;41718;51.980;5.734;2023-08-01T18:25:00;4.53;;;1.48;;
48789;SDS011;41718;51.980;5.734;2023-08-01T18:30:05;9.17;;;2.10;;
48789;SDS011;41718;51.980;5.734;2023-08-01T18:35:14;5.95;;;1.58;;
48789;SDS011;41718;51.980;5.734;2023-08-01T18:40:20;4.22;;;1.85;;
48789;SDS011;41718;51.980;5.734;2023-08-01T18:45:28;5.50;;;1.48;;
48789;SDS011;41718;51.980;5.734;2023-08-01T18:50:36;6.82;;;2.20;;
48789;SDS011;41718;51.980;5.734;2023-08-01T18:55:39;5.45;;;2.25;;
48789;SDS011;41718;51.980;5.734;2023-08-01T19:00:41;3.92;;;1.70;;
48789;SDS011;41718;51.980;5.734;2023-08-01T19:05:43;5.35;;;1.52;;
48789;SDS011;41718;51.980;5.734;2023-08-01T19:10:48;9.45;;;1.77;;
48789;SDS011;41718;51.980;5.734;2023-08-01T19:15:53;4.35;;;1.75;;
48789;SDS011;41718;51.980;5.734;2023-08-01T19:20:58;5.47;;;1.50;;
48789;SDS011;41718;51.980;5.734;2023-08-01T19:26:09;7.78;;;2.10;;
48789;SDS011;41718;51.980;5.734;2023-08-01T19:31:16;4.15;;;2.05;;
48789;SDS011;41718;51.980;5.734;2023-08-01T19:36:23;4.88;;;2.60;;
48789;SDS011;41718;51.980;5.734;2023-08-01T19:41:24;10.20;;;2.90;;
48789;SDS011;41718;51.980;5.734;2023-08-01T19:46:27;5.30;;;1.50;;
48789;SDS011;41718;51.980;5.734;2023-08-01T19:51:29;6.78;;;1.85;;
48789;SDS011;41718;51.980;5.734;2023-08-01T19:56:32;5.13;;;2.03;;
48789;SDS011;41718;51.980;5.734;2023-08-01T20:01:34;7.35;;;2.97;;
48789;SDS011;41718;51.980;5.734;2023-08-01T20:06:35;7.20;;;2.13;;
48789;SDS011;41718;51.980;5.734;2023-08-01T20:11:37;9.57;;;2.25;;
48789;SDS011;41718;51.980;5.734;2023-08-01T20:16:39;9.63;;;2.50;;
48789;SDS011;41718;51.980;5.734;2023-08-01T20:21:44;4.90;;;1.75;;
48789;SDS011;41718;51.980;5.734;2023-08-01T20:26:45;5.18;;;2.17;;
48789;SDS011;41718;51.980;5.734;2023-08-01T20:31:47;7.80;;;2.47;;
48789;SDS011;41718;51.980;5.734;2023-08-01T20:36:49;8.90;;;3.33;;
48789;SDS011;41718;51.980;5.734;2023-08-01T20:41:51;10.10;;;3.97;;
48789;SDS011;41718;51.980;5.734;2023-08-01T20:46:55;11.38;;;4.40;;
48789;SDS011;41718;51.980;5.734;2023-08-01T20:51:57;11.20;;;3.83;;
48789;SDS011;41718;51.980;5.734;2023-08-01T20:56:59;7.88;;;3.28;;
48789;SDS011;41718;51.980;5.734;2023-08-01T21:02:00;7.53;;;3.42;;
48789;SDS011;41718;51.980;5.734;2023-08-01T21:07:08;10.45;;;4.97;;
48789;SDS011;41718;51.980;5.734;2023-08-01T21:12:10;12.27;;;3.53;;
48789;SDS011;41718;51.980;5.734;2023-08-01T21:17:15;8.80;;;4.13;;
48789;SDS011;41718;51.980;5.734;2023-08-01T21:22:20;4.78;;;3.00;;
48789;SDS011;41718;51.980;5.734;2023-08-01T21:27:22;10.60;;;3.53;;
48789;SDS011;41718;51.980;5.734;2023-08-01T21:32:24;9.95;;;3.15;;
48789;SDS011;41718;51.980;5.734;2023-08-01T21:37:25;9.10;;;3.22;;
48789;SDS011;41718;51.980;5.734;2023-08-01T21:42:27;7.25;;;3.08;;
48789;SDS011;41718;51.980;5.734;2023-08-01T21:47:47;12.23;;;3.63;;
48789;SDS011;41718;51.980;5.734;2023-08-01T21:52:49;12.00;;;3.95;;
48789;SDS011;41718;51.980;5.734;2023-08-01T21:57:54;11.03;;;4.07;;
48789;SDS011;41718;51.980;5.734;2023-08-01T22:03:00;5.90;;;2.88;;
48789;SDS011;41718;51.980;5.734;2023-08-01T22:08:02;10.68;;;3.90;;
48789;SDS011;41718;51.980;5.734;2023-08-01T22:13:05;7.03;;;3.20;;
48789;SDS011;41718;51.980;5.734;2023-08-01T22:18:09;9.25;;;3.33;;
48789;SDS011;41718;51.980;5.734;2023-08-01T22:23:28;8.32;;;2.55;;
48789;SDS011;41718;51.980;5.734;2023-08-01T22:28:41;7.78;;;3.20;;
48789;SDS011;41718;51.980;5.734;2023-08-01T22:33:44;7.25;;;2.75;;
48789;SDS011;41718;51.980;5.734;2023-08-01T22:38:46;8.70;;;3.00;;
48789;SDS011;41718;51.980;5.734;2023-08-01T22:43:48;9.57;;;3.45;;
48789;SDS011;41718;51.980;5.734;2023-08-01T22:48:49;5.35;;;3.58;;
48789;SDS011;41718;51.980;5.734;2023-08-01T22:53:52;12.40;;;4.70;;
48789;SDS011;41718;51.980;5.734;2023-08-01T22:58:53;11.65;;;3.85;;
48789;SDS011;41718;51.980;5.734;2023-08-01T23:03:55;8.45;;;3.38;;
48789;SDS011;41718;51.980;5.734;2023-08-01T23:08:57;9.95;;;3.97;;
48789;SDS011;41718;51.980;5.734;2023-08-01T23:13:59;9.90;;;4.40;;
48789;SDS011;41718;51.980;5.734;2023-08-01T23:19:00;11.35;;;3.95;;
48789;SDS011;41718;51.980;5.734;2023-08-01T23:24:02;10.45;;;4.28;;
48789;SDS011;41718;51.980;5.734;2023-08-01T23:29:04;9.77;;;4.25;;
48789;SDS011;41718;51.980;5.734;2023-08-01T23:34:06;12.38;;;4.38;;
48789;SDS011;41718;51.980;5.734;2023-08-01T23:39:08;8.57;;;4.07;;
48789;SDS011;41718;51.980;5.734;2023-08-01T23:44:09;8.15;;;4.35;;
48789;SDS011;41718;51.980;5.734;2023-08-01T23:49:11;13.35;;;4.50;;
48789;SDS011;41718;51.980;5.734;2023-08-01T23:54:12;6.93;;;3.65;;
48789;SDS011;41718;51.980;5.734;2023-08-01T23:59:14;8.10;;;4.55;;
